sensor_id;sensor_type;location;lat;lon;timestamp;P1;durP1;ratioP1;P2;durP2;ratioP2
74821;SDS011;63353;48.702;8.884;2023-08-30T00:01:52;64.50;;;61.07;;
74821;SDS011;63353;48.702;8.884;2023-08-30T00:04:18;70.40;;;66.70;;
74821;SDS011;63353;48.702;8.884;2023-08-30T00:06:43;65.77;;;62.17;;
74821;SDS011;63353;48.702;8.884;2023-08-30T00:09:09;63.97;;;60.23;;
74821;SDS011;63353;48.702;8.884;2023-08-30T00:11:35;69.20;;;65.33;;
74821;SDS011;63353;48.702;8.884;2023-08-30T00:14:04;69.17;;;65.47;;
74821;SDS011;63353;48.702;8.884;2023-08-30T00:16:31;60.80;;;57.47;;
74821;SDS011;63353;48.702;8.884;2023-08-30T00:18:58;60.93;;;57.30;;
74821;SDS011;63353;48.702;8.884;2023-08-30T00:21:24;64.10;;;60.47;;
74821;SDS011;63353;48.702;8.884;2023-08-30T00:23:50;62.37;;;58.80;;
74821;SDS011;63353;48.702;8.884;2023-08-30T00:26:35;55.87;;;52.23;;
74821;SDS011;63353;48.702;8.884;2023-08-30T00:29:00;56.23;;;52.77;;
74821;SDS011;63353;48.702;8.884;2023-08-30T00:31:29;56.17;;;52.77;;
74821;SDS011;63353;48.702;8.884;2023-08-30T00:33:57;49.27;;;46.20;;
74821;SDS011;63353;48.702;8.884;2023-08-30T00:36:23;56.27;;;52.87;;
74821;SDS011;63353;48.702;8.884;2023-08-30T00:38:48;47.00;;;43.97;;
74821;SDS011;63353;48.702;8.884;2023-08-30T00:41:14;49.87;;;46.43;;
74821;SDS011;63353;48.702;8.884;2023-08-30T00:43:40;53.63;;;50.20;;
74821;SDS011;63353;48.702;8.884;2023-08-30T00:46:09;59.47;;;55.70;;
74821;SDS011;63353;48.702;8.884;2023-08-30T00:48:38;53.60;;;50.23;;
74821;SDS011;63353;48.702;8.884;2023-08-30T00:51:04;50.03;;;46.73;;
74821;SDS011;63353;48.702;8.884;2023-08-30T00:53:31;49.43;;;45.73;;
74821;SDS011;63353;48.702;8.884;2023-08-30T00:55:57;47.23;;;43.93;;
74821;SDS011;63353;48.702;8.884;2023-08-30T00:58:32;40.13;;;37.23;;
74821;SDS011;63353;48.702;8.884;2023-08-30T01:00:58;44.13;;;41.00;;
74821;SDS011;63353;48.702;8.884;2023-08-30T01:03:24;44.53;;;41.57;;
74821;SDS011;63353;48.702;8.884;2023-08-30T01:05:49;35.80;;;33.23;;
74821;SDS011;63353;48.702;8.884;2023-08-30T01:08:15;38.37;;;35.57;;
74821;SDS011;63353;48.702;8.884;2023-08-30T01:10:44;36.53;;;33.70;;
74821;SDS011;63353;48.702;8.884;2023-08-30T01:13:18;35.70;;;33.07;;
74821;SDS011;63353;48.702;8.884;2023-08-30T01:15:48;36.10;;;33.43;;
74821;SDS011;63353;48.702;8.884;2023-08-30T01:18:19;37.47;;;34.63;;
74821;SDS011;63353;48.702;8.884;2023-08-30T01:20:49;35.87;;;33.23;;
74821;SDS011;63353;48.702;8.884;2023-08-30T01:26:26;40.70;;;37.77;;
74821;SDS011;63353;48.702;8.884;2023-08-30T01:29:17;38.47;;;35.67;;
74821;SDS011;63353;48.702;8.884;2023-08-30T01:31:46;43.53;;;40.50;;
74821;SDS011;63353;48.702;8.884;2023-08-30T01:34:13;46.13;;;42.97;;
74821;SDS011;63353;48.702;8.884;2023-08-30T01:36:40;47.17;;;44.07;;
74821;SDS011;63353;48.702;8.884;2023-08-30T01:39:07;54.87;;;51.50;;
74821;SDS011;63353;48.702;8.884;2023-08-30T01:41:35;58.47;;;54.77;;
74821;SDS011;63353;48.702;8.884;2023-08-30T01:44:02;60.00;;;56.50;;
74821;SDS011;63353;48.702;8.884;2023-08-30T01:46:33;51.47;;;48.33;;
74821;SDS011;63353;48.702;8.884;2023-08-30T01:49:01;60.80;;;57.00;;
74821;SDS011;63353;48.702;8.884;2023-08-30T01:51:28;58.87;;;55.33;;
74821;SDS011;63353;48.702;8.884;2023-08-30T01:54:00;43.00;;;39.80;;
74821;SDS011;63353;48.702;8.884;2023-08-30T01:56:34;57.70;;;54.17;;
74821;SDS011;63353;48.702;8.884;2023-08-30T01:58:59;57.27;;;53.73;;
74821;SDS011;63353;48.702;8.884;2023-08-30T02:01:25;51.63;;;48.33;;
74821;SDS011;63353;48.702;8.884;2023-08-30T02:03:51;54.90;;;51.33;;
74821;SDS011;63353;48.702;8.884;2023-08-30T02:06:50;47.07;;;43.73;;
74821;SDS011;63353;48.702;8.884;2023-08-30T02:09:19;41.33;;;38.33;;
74821;SDS011;63353;48.702;8.884;2023-08-30T02:11:55;43.20;;;40.10;;
74821;SDS011;63353;48.702;8.884;2023-08-30T02:14:30;51.30;;;47.70;;
74821;SDS011;63353;48.702;8.884;2023-08-30T02:16:57;51.33;;;47.73;;
74821;SDS011;63353;48.702;8.884;2023-08-30T02:19:23;46.10;;;42.67;;
74821;SDS011;63353;48.702;8.884;2023-08-30T02:21:50;49.63;;;46.07;;
74821;SDS011;63353;48.702;8.884;2023-08-30T02:24:15;51.87;;;48.13;;
74821;SDS011;63353;48.702;8.884;2023-08-30T02:26:41;38.37;;;35.40;;
74821;SDS011;63353;48.702;8.884;2023-08-30T02:29:07;49.27;;;45.67;;
74821;SDS011;63353;48.702;8.884;2023-08-30T02:31:33;45.83;;;41.70;;
74821;SDS011;63353;48.702;8.884;2023-08-30T02:33:59;44.47;;;40.77;;
74821;SDS011;63353;48.702;8.884;2023-08-30T02:36:33;47.07;;;43.30;;
74821;SDS011;63353;48.702;8.884;2023-08-30T02:38:59;34.53;;;31.57;;
74821;SDS011;63353;48.702;8.884;2023-08-30T02:41:28;31.60;;;28.83;;
74821;SDS011;63353;48.702;8.884;2023-08-30T02:43:53;46.10;;;42.33;;
74821;SDS011;63353;48.702;8.884;2023-08-30T02:46:19;51.57;;;47.43;;
74821;SDS011;63353;48.702;8.884;2023-08-30T02:48:47;47.63;;;43.87;;
74821;SDS011;63353;48.702;8.884;2023-08-30T02:51:19;45.33;;;41.50;;
74821;SDS011;63353;48.702;8.884;2023-08-30T02:53:44;33.00;;;30.17;;
74821;SDS011;63353;48.702;8.884;2023-08-30T02:56:10;36.67;;;33.60;;
74821;SDS011;63353;48.702;8.884;2023-08-30T02:58:39;36.83;;;33.37;;
74821;SDS011;63353;48.702;8.884;2023-08-30T03:01:05;34.10;;;31.37;;
74821;SDS011;63353;48.702;8.884;2023-08-30T03:03:33;37.70;;;34.67;;
74821;SDS011;63353;48.702;8.884;2023-08-30T03:06:02;33.83;;;30.70;;
74821;SDS011;63353;48.702;8.884;2023-08-30T03:08:31;35.50;;;32.20;;
74821;SDS011;63353;48.702;8.884;2023-08-30T03:11:13;36.83;;;33.50;;
74821;SDS011;63353;48.702;8.884;2023-08-30T03:13:39;29.27;;;26.40;;
74821;SDS011;63353;48.702;8.884;2023-08-30T03:16:14;26.40;;;23.80;;
74821;SDS011;63353;48.702;8.884;2023-08-30T03:18:41;26.80;;;24.00;;
74821;SDS011;63353;48.702;8.884;2023-08-30T03:21:07;27.20;;;24.33;;
74821;SDS011;63353;48.702;8.884;2023-08-30T03:23:36;28.00;;;25.13;;
74821;SDS011;63353;48.702;8.884;2023-08-30T03:26:15;30.67;;;27.53;;
74821;SDS011;63353;48.702;8.884;2023-08-30T03:28:42;28.80;;;25.57;;
74821;SDS011;63353;48.702;8.884;2023-08-30T03:31:15;27.67;;;24.93;;
74821;SDS011;63353;48.702;8.884;2023-08-30T03:33:42;29.53;;;26.70;;
74821;SDS011;63353;48.702;8.884;2023-08-30T03:36:17;28.40;;;25.67;;
74821;SDS011;63353;48.702;8.884;2023-08-30T03:38:43;29.70;;;26.70;;
74821;SDS011;63353;48.702;8.884;2023-08-30T03:41:10;28.47;;;25.63;;
74821;SDS011;63353;48.702;8.884;2023-08-30T03:43:36;27.30;;;24.60;;
74821;SDS011;63353;48.702;8.884;2023-08-30T03:46:02;31.53;;;28.43;;
74821;SDS011;63353;48.702;8.884;2023-08-30T03:48:31;41.43;;;38.03;;
74821;SDS011;63353;48.702;8.884;2023-08-30T03:50:57;36.37;;;33.27;;
74821;SDS011;63353;48.702;8.884;2023-08-30T03:53:24;33.73;;;30.70;;
74821;SDS011;63353;48.702;8.884;2023-08-30T03:55:50;33.43;;;30.63;;
74821;SDS011;63353;48.702;8.884;2023-08-30T03:58:16;33.03;;;30.23;;
74821;SDS011;63353;48.702;8.884;2023-08-30T04:00:42;33.27;;;30.43;;
74821;SDS011;63353;48.702;8.884;2023-08-30T04:03:09;30.87;;;28.10;;
74821;SDS011;63353;48.702;8.884;2023-08-30T04:05:38;32.67;;;29.93;;
74821;SDS011;63353;48.702;8.884;2023-08-30T04:08:07;33.63;;;30.73;;
74821;SDS011;63353;48.702;8.884;2023-08-30T04:10:36;34.57;;;31.73;;
74821;SDS011;63353;48.702;8.884;2023-08-30T04:13:12;26.47;;;23.97;;
74821;SDS011;63353;48.702;8.884;2023-08-30T04:15:38;24.63;;;22.23;;
74821;SDS011;63353;48.702;8.884;2023-08-30T04:18:05;21.37;;;19.17;;
74821;SDS011;63353;48.702;8.884;2023-08-30T04:20:34;20.97;;;18.93;;
74821;SDS011;63353;48.702;8.884;2023-08-30T04:23:01;20.83;;;18.83;;
74821;SDS011;63353;48.702;8.884;2023-08-30T04:25:30;23.27;;;20.83;;
74821;SDS011;63353;48.702;8.884;2023-08-30T04:27:56;22.53;;;19.60;;
74821;SDS011;63353;48.702;8.884;2023-08-30T04:30:22;22.73;;;20.27;;
74821;SDS011;63353;48.702;8.884;2023-08-30T04:32:48;25.03;;;21.67;;
74821;SDS011;63353;48.702;8.884;2023-08-30T04:35:13;24.90;;;22.33;;
74821;SDS011;63353;48.702;8.884;2023-08-30T04:37:39;24.07;;;21.37;;
74821;SDS011;63353;48.702;8.884;2023-08-30T04:40:06;23.90;;;21.33;;
74821;SDS011;63353;48.702;8.884;2023-08-30T04:42:34;24.80;;;21.73;;
74821;SDS011;63353;48.702;8.884;2023-08-30T04:45:00;24.93;;;22.33;;
74821;SDS011;63353;48.702;8.884;2023-08-30T04:47:27;24.60;;;21.13;;
74821;SDS011;63353;48.702;8.884;2023-08-30T04:49:57;26.07;;;23.37;;
74821;SDS011;63353;48.702;8.884;2023-08-30T04:52:22;25.53;;;22.30;;
74821;SDS011;63353;48.702;8.884;2023-08-30T04:54:49;25.77;;;22.30;;
74821;SDS011;63353;48.702;8.884;2023-08-30T04:57:17;26.83;;;23.97;;
74821;SDS011;63353;48.702;8.884;2023-08-30T04:59:44;32.23;;;29.03;;
74821;SDS011;63353;48.702;8.884;2023-08-30T05:02:10;29.60;;;26.90;;
74821;SDS011;63353;48.702;8.884;2023-08-30T05:04:36;27.87;;;24.93;;
74821;SDS011;63353;48.702;8.884;2023-08-30T05:07:03;26.37;;;23.77;;
74821;SDS011;63353;48.702;8.884;2023-08-30T05:09:32;25.97;;;23.40;;
74821;SDS011;63353;48.702;8.884;2023-08-30T05:11:59;27.27;;;24.50;;
74821;SDS011;63353;48.702;8.884;2023-08-30T05:14:25;28.27;;;25.43;;
74821;SDS011;63353;48.702;8.884;2023-08-30T05:16:52;27.60;;;24.73;;
74821;SDS011;63353;48.702;8.884;2023-08-30T05:19:17;28.00;;;25.17;;
74821;SDS011;63353;48.702;8.884;2023-08-30T05:21:43;25.63;;;23.13;;
74821;SDS011;63353;48.702;8.884;2023-08-30T05:24:09;24.80;;;22.27;;
74821;SDS011;63353;48.702;8.884;2023-08-30T05:26:35;26.60;;;23.93;;
74821;SDS011;63353;48.702;8.884;2023-08-30T05:29:01;27.37;;;24.87;;
74821;SDS011;63353;48.702;8.884;2023-08-30T05:31:28;26.60;;;24.10;;
74821;SDS011;63353;48.702;8.884;2023-08-30T05:33:54;23.87;;;21.37;;
74821;SDS011;63353;48.702;8.884;2023-08-30T05:36:19;26.73;;;24.17;;
74821;SDS011;63353;48.702;8.884;2023-08-30T05:38:45;27.30;;;24.73;;
74821;SDS011;63353;48.702;8.884;2023-08-30T05:41:11;30.07;;;27.50;;
74821;SDS011;63353;48.702;8.884;2023-08-30T05:43:37;32.23;;;29.63;;
74821;SDS011;63353;48.702;8.884;2023-08-30T05:46:03;36.30;;;33.40;;
74821;SDS011;63353;48.702;8.884;2023-08-30T05:48:29;27.37;;;24.73;;
74821;SDS011;63353;48.702;8.884;2023-08-30T05:50:55;33.27;;;30.53;;
74821;SDS011;63353;48.702;8.884;2023-08-30T05:53:21;27.80;;;25.33;;
74821;SDS011;63353;48.702;8.884;2023-08-30T05:55:47;28.60;;;26.27;;
74821;SDS011;63353;48.702;8.884;2023-08-30T05:58:13;30.13;;;27.73;;
74821;SDS011;63353;48.702;8.884;2023-08-30T06:00:40;27.00;;;24.87;;
74821;SDS011;63353;48.702;8.884;2023-08-30T06:03:06;24.53;;;22.47;;
74821;SDS011;63353;48.702;8.884;2023-08-30T06:05:32;24.83;;;22.67;;
74821;SDS011;63353;48.702;8.884;2023-08-30T06:08:01;27.87;;;25.60;;
74821;SDS011;63353;48.702;8.884;2023-08-30T06:10:27;30.73;;;28.40;;
74821;SDS011;63353;48.702;8.884;2023-08-30T06:12:53;24.30;;;22.10;;
74821;SDS011;63353;48.702;8.884;2023-08-30T06:15:19;24.27;;;22.17;;
74821;SDS011;63353;48.702;8.884;2023-08-30T06:17:44;28.60;;;26.27;;
74821;SDS011;63353;48.702;8.884;2023-08-30T06:20:11;34.03;;;31.53;;
74821;SDS011;63353;48.702;8.884;2023-08-30T06:22:37;26.70;;;24.57;;
74821;SDS011;63353;48.702;8.884;2023-08-30T06:25:04;25.13;;;23.03;;
74821;SDS011;63353;48.702;8.884;2023-08-30T06:27:31;24.00;;;21.83;;
74821;SDS011;63353;48.702;8.884;2023-08-30T06:29:57;25.73;;;23.70;;
74821;SDS011;63353;48.702;8.884;2023-08-30T06:32:23;27.37;;;25.23;;
74821;SDS011;63353;48.702;8.884;2023-08-30T06:34:49;23.50;;;21.27;;
74821;SDS011;63353;48.702;8.884;2023-08-30T06:37:14;24.40;;;22.40;;
74821;SDS011;63353;48.702;8.884;2023-08-30T06:39:40;24.77;;;22.80;;
74821;SDS011;63353;48.702;8.884;2023-08-30T06:42:06;27.10;;;24.87;;
74821;SDS011;63353;48.702;8.884;2023-08-30T06:44:32;25.37;;;23.33;;
74821;SDS011;63353;48.702;8.884;2023-08-30T06:46:58;24.90;;;22.83;;
74821;SDS011;63353;48.702;8.884;2023-08-30T06:49:23;25.90;;;23.50;;
74821;SDS011;63353;48.702;8.884;2023-08-30T06:51:49;28.67;;;26.50;;
74821;SDS011;63353;48.702;8.884;2023-08-30T06:54:15;23.97;;;21.87;;
74821;SDS011;63353;48.702;8.884;2023-08-30T06:56:41;30.57;;;28.10;;
74821;SDS011;63353;48.702;8.884;2023-08-30T06:59:06;32.60;;;30.30;;
74821;SDS011;63353;48.702;8.884;2023-08-30T07:01:32;25.80;;;23.67;;
74821;SDS011;63353;48.702;8.884;2023-08-30T07:03:58;30.47;;;28.23;;
74821;SDS011;63353;48.702;8.884;2023-08-30T07:06:23;29.37;;;27.07;;
74821;SDS011;63353;48.702;8.884;2023-08-30T07:08:49;27.07;;;25.03;;
74821;SDS011;63353;48.702;8.884;2023-08-30T07:11:15;31.70;;;29.47;;
74821;SDS011;63353;48.702;8.884;2023-08-30T07:13:40;28.33;;;26.07;;
74821;SDS011;63353;48.702;8.884;2023-08-30T07:16:06;30.27;;;28.10;;
74821;SDS011;63353;48.702;8.884;2023-08-30T07:18:32;34.90;;;32.60;;
74821;SDS011;63353;48.702;8.884;2023-08-30T07:20:58;33.10;;;30.90;;
74821;SDS011;63353;48.702;8.884;2023-08-30T07:23:23;43.60;;;40.93;;
74821;SDS011;63353;48.702;8.884;2023-08-30T07:25:51;36.43;;;34.03;;
74821;SDS011;63353;48.702;8.884;2023-08-30T07:28:16;37.37;;;34.87;;
74821;SDS011;63353;48.702;8.884;2023-08-30T07:30:42;41.53;;;38.93;;
74821;SDS011;63353;48.702;8.884;2023-08-30T07:33:07;44.50;;;41.87;;
74821;SDS011;63353;48.702;8.884;2023-08-30T07:35:33;34.67;;;32.33;;
74821;SDS011;63353;48.702;8.884;2023-08-30T07:37:59;37.83;;;35.30;;
74821;SDS011;63353;48.702;8.884;2023-08-30T07:40:24;39.10;;;35.80;;
74821;SDS011;63353;48.702;8.884;2023-08-30T07:42:51;32.77;;;30.53;;
74821;SDS011;63353;48.702;8.884;2023-08-30T07:45:17;36.03;;;33.63;;
74821;SDS011;63353;48.702;8.884;2023-08-30T07:47:43;48.77;;;45.10;;
74821;SDS011;63353;48.702;8.884;2023-08-30T07:50:09;36.53;;;34.13;;
74821;SDS011;63353;48.702;8.884;2023-08-30T07:52:34;43.23;;;40.60;;
74821;SDS011;63353;48.702;8.884;2023-08-30T07:55:00;31.07;;;29.00;;
74821;SDS011;63353;48.702;8.884;2023-08-30T07:57:26;24.57;;;22.80;;
74821;SDS011;63353;48.702;8.884;2023-08-30T07:59:52;38.20;;;35.83;;
74821;SDS011;63353;48.702;8.884;2023-08-30T08:02:18;28.23;;;26.17;;
74821;SDS011;63353;48.702;8.884;2023-08-30T08:04:45;47.33;;;44.37;;
74821;SDS011;63353;48.702;8.884;2023-08-30T08:07:10;20.77;;;19.13;;
74821;SDS011;63353;48.702;8.884;2023-08-30T08:09:36;49.63;;;46.80;;
74821;SDS011;63353;48.702;8.884;2023-08-30T08:12:02;43.77;;;41.17;;
74821;SDS011;63353;48.702;8.884;2023-08-30T08:14:28;34.63;;;32.37;;
74821;SDS011;63353;48.702;8.884;2023-08-30T08:16:54;32.60;;;30.27;;
74821;SDS011;63353;48.702;8.884;2023-08-30T08:19:20;60.17;;;56.90;;
74821;SDS011;63353;48.702;8.884;2023-08-30T08:21:46;25.87;;;24.00;;
74821;SDS011;63353;48.702;8.884;2023-08-30T08:24:12;35.90;;;33.53;;
74821;SDS011;63353;48.702;8.884;2023-08-30T08:26:38;38.23;;;35.87;;
74821;SDS011;63353;48.702;8.884;2023-08-30T08:29:04;31.50;;;29.03;;
74821;SDS011;63353;48.702;8.884;2023-08-30T08:31:30;26.30;;;24.57;;
74821;SDS011;63353;48.702;8.884;2023-08-30T08:36:54;27.67;;;25.77;;
74821;SDS011;63353;48.702;8.884;2023-08-30T08:39:20;16.37;;;15.07;;
74821;SDS011;63353;48.702;8.884;2023-08-30T08:41:45;16.50;;;15.10;;
74821;SDS011;63353;48.702;8.884;2023-08-30T08:44:12;16.17;;;14.87;;
74821;SDS011;63353;48.702;8.884;2023-08-30T08:46:39;24.97;;;23.20;;
74821;SDS011;63353;48.702;8.884;2023-08-30T08:49:11;23.73;;;21.93;;
74821;SDS011;63353;48.702;8.884;2023-08-30T08:51:41;15.10;;;13.80;;
74821;SDS011;63353;48.702;8.884;2023-08-30T08:54:08;14.77;;;13.57;;
74821;SDS011;63353;48.702;8.884;2023-08-30T08:56:34;15.07;;;13.77;;
74821;SDS011;63353;48.702;8.884;2023-08-30T08:59:00;17.27;;;15.87;;
74821;SDS011;63353;48.702;8.884;2023-08-30T09:01:27;13.70;;;12.70;;
74821;SDS011;63353;48.702;8.884;2023-08-30T09:03:53;14.40;;;13.33;;
74821;SDS011;63353;48.702;8.884;2023-08-30T09:06:19;15.27;;;14.10;;
74821;SDS011;63353;48.702;8.884;2023-08-30T09:08:45;15.27;;;14.07;;
74821;SDS011;63353;48.702;8.884;2023-08-30T09:11:12;12.83;;;11.83;;
74821;SDS011;63353;48.702;8.884;2023-08-30T09:13:38;13.30;;;12.20;;
74821;SDS011;63353;48.702;8.884;2023-08-30T09:16:13;12.87;;;11.97;;
74821;SDS011;63353;48.702;8.884;2023-08-30T09:18:42;13.73;;;12.63;;
74821;SDS011;63353;48.702;8.884;2023-08-30T09:21:08;14.60;;;13.60;;
74821;SDS011;63353;48.702;8.884;2023-08-30T09:23:35;14.13;;;13.13;;
74821;SDS011;63353;48.702;8.884;2023-08-30T09:26:01;12.40;;;11.47;;
74821;SDS011;63353;48.702;8.884;2023-08-30T09:28:28;10.60;;;9.80;;
74821;SDS011;63353;48.702;8.884;2023-08-30T09:30:56;11.77;;;10.93;;
74821;SDS011;63353;48.702;8.884;2023-08-30T09:33:30;14.97;;;13.97;;
74821;SDS011;63353;48.702;8.884;2023-08-30T09:35:57;11.87;;;11.07;;
74821;SDS011;63353;48.702;8.884;2023-08-30T09:38:23;13.43;;;12.60;;
74821;SDS011;63353;48.702;8.884;2023-08-30T09:40:50;10.33;;;9.60;;
74821;SDS011;63353;48.702;8.884;2023-08-30T09:43:19;11.00;;;10.20;;
74821;SDS011;63353;48.702;8.884;2023-08-30T09:45:50;11.50;;;10.63;;
74821;SDS011;63353;48.702;8.884;2023-08-30T09:48:20;10.63;;;9.83;;
74821;SDS011;63353;48.702;8.884;2023-08-30T09:50:53;9.07;;;8.47;;
74821;SDS011;63353;48.702;8.884;2023-08-30T09:53:21;12.63;;;11.73;;
74821;SDS011;63353;48.702;8.884;2023-08-30T09:55:54;9.70;;;9.10;;
74821;SDS011;63353;48.702;8.884;2023-08-30T09:58:22;10.37;;;9.67;;
74821;SDS011;63353;48.702;8.884;2023-08-30T10:00:49;11.07;;;10.27;;
74821;SDS011;63353;48.702;8.884;2023-08-30T10:03:16;10.20;;;9.37;;
74821;SDS011;63353;48.702;8.884;2023-08-30T10:05:43;11.27;;;10.37;;
74821;SDS011;63353;48.702;8.884;2023-08-30T10:08:10;9.70;;;9.07;;
74821;SDS011;63353;48.702;8.884;2023-08-30T10:10:38;10.27;;;9.57;;
74821;SDS011;63353;48.702;8.884;2023-08-30T10:13:05;11.60;;;10.90;;
74821;SDS011;63353;48.702;8.884;2023-08-30T10:15:31;12.67;;;11.77;;
74821;SDS011;63353;48.702;8.884;2023-08-30T10:18:04;11.87;;;10.97;;
74821;SDS011;63353;48.702;8.884;2023-08-30T10:20:34;10.77;;;10.17;;
74821;SDS011;63353;48.702;8.884;2023-08-30T10:23:02;10.17;;;9.47;;
74821;SDS011;63353;48.702;8.884;2023-08-30T10:25:29;12.37;;;11.50;;
74821;SDS011;63353;48.702;8.884;2023-08-30T10:27:56;11.80;;;10.90;;
74821;SDS011;63353;48.702;8.884;2023-08-30T10:30:23;11.63;;;10.73;;
74821;SDS011;63353;48.702;8.884;2023-08-30T10:32:50;9.00;;;8.40;;
74821;SDS011;63353;48.702;8.884;2023-08-30T10:35:17;9.40;;;8.80;;
74821;SDS011;63353;48.702;8.884;2023-08-30T10:37:53;9.40;;;8.80;;
74821;SDS011;63353;48.702;8.884;2023-08-30T10:40:20;11.80;;;11.00;;
74821;SDS011;63353;48.702;8.884;2023-08-30T10:42:47;9.40;;;8.43;;
74821;SDS011;63353;48.702;8.884;2023-08-30T10:45:33;9.67;;;8.97;;
74821;SDS011;63353;48.702;8.884;2023-08-30T10:47:59;9.20;;;8.60;;
74821;SDS011;63353;48.702;8.884;2023-08-30T10:50:32;10.37;;;9.57;;
74821;SDS011;63353;48.702;8.884;2023-08-30T10:52:59;11.10;;;10.40;;
74821;SDS011;63353;48.702;8.884;2023-08-30T10:55:25;10.37;;;9.63;;
74821;SDS011;63353;48.702;8.884;2023-08-30T10:57:58;9.50;;;8.90;;
74821;SDS011;63353;48.702;8.884;2023-08-30T11:00:30;9.53;;;8.93;;
74821;SDS011;63353;48.702;8.884;2023-08-30T11:02:56;9.10;;;8.50;;
74821;SDS011;63353;48.702;8.884;2023-08-30T11:05:22;8.23;;;7.63;;
74821;SDS011;63353;48.702;8.884;2023-08-30T11:07:52;7.83;;;7.33;;
74821;SDS011;63353;48.702;8.884;2023-08-30T11:10:19;8.83;;;8.33;;
74821;SDS011;63353;48.702;8.884;2023-08-30T11:12:45;9.43;;;8.97;;
74821;SDS011;63353;48.702;8.884;2023-08-30T11:15:14;9.73;;;9.23;;
74821;SDS011;63353;48.702;8.884;2023-08-30T11:17:40;12.67;;;11.70;;
74821;SDS011;63353;48.702;8.884;2023-08-30T11:20:10;15.13;;;14.23;;
74821;SDS011;63353;48.702;8.884;2023-08-30T11:25:11;27.97;;;26.57;;
74821;SDS011;63353;48.702;8.884;2023-08-30T11:27:38;17.67;;;16.57;;
74821;SDS011;63353;48.702;8.884;2023-08-30T11:30:04;19.13;;;18.07;;
74821;SDS011;63353;48.702;8.884;2023-08-30T11:32:34;19.60;;;18.60;;
74821;SDS011;63353;48.702;8.884;2023-08-30T11:35:00;38.53;;;36.73;;
74821;SDS011;63353;48.702;8.884;2023-08-30T11:37:29;90.20;;;86.30;;
74821;SDS011;63353;48.702;8.884;2023-08-30T11:39:55;96.83;;;92.80;;
74821;SDS011;63353;48.702;8.884;2023-08-30T11:42:21;88.30;;;84.50;;
74821;SDS011;63353;48.702;8.884;2023-08-30T11:44:48;28.77;;;27.23;;
74821;SDS011;63353;48.702;8.884;2023-08-30T11:47:33;84.50;;;80.87;;
74821;SDS011;63353;48.702;8.884;2023-08-30T11:49:59;66.83;;;63.83;;
74821;SDS011;63353;48.702;8.884;2023-08-30T11:52:28;91.90;;;87.83;;
74821;SDS011;63353;48.702;8.884;2023-08-30T11:54:56;69.03;;;65.93;;
74821;SDS011;63353;48.702;8.884;2023-08-30T11:57:21;93.33;;;89.33;;
74821;SDS011;63353;48.702;8.884;2023-08-30T11:59:47;75.53;;;72.23;;
74821;SDS011;63353;48.702;8.884;2023-08-30T12:02:15;68.10;;;65.17;;
74821;SDS011;63353;48.702;8.884;2023-08-30T12:04:42;78.83;;;75.47;;
74821;SDS011;63353;48.702;8.884;2023-08-30T12:07:08;29.37;;;27.87;;
74821;SDS011;63353;48.702;8.884;2023-08-30T12:09:35;32.83;;;31.27;;
74821;SDS011;63353;48.702;8.884;2023-08-30T12:12:05;84.27;;;80.43;;
74821;SDS011;63353;48.702;8.884;2023-08-30T12:14:34;29.03;;;27.50;;
74821;SDS011;63353;48.702;8.884;2023-08-30T12:17:00;27.87;;;26.57;;
74821;SDS011;63353;48.702;8.884;2023-08-30T12:19:27;42.63;;;40.57;;
74821;SDS011;63353;48.702;8.884;2023-08-30T12:21:53;41.67;;;39.67;;
74821;SDS011;63353;48.702;8.884;2023-08-30T12:24:19;48.90;;;46.53;;
74821;SDS011;63353;48.702;8.884;2023-08-30T12:26:44;16.80;;;15.90;;
74821;SDS011;63353;48.702;8.884;2023-08-30T12:29:10;20.63;;;19.57;;
74821;SDS011;63353;48.702;8.884;2023-08-30T12:31:35;18.00;;;17.00;;
74821;SDS011;63353;48.702;8.884;2023-08-30T12:34:02;18.10;;;17.00;;
74821;SDS011;63353;48.702;8.884;2023-08-30T12:36:28;21.90;;;20.73;;
74821;SDS011;63353;48.702;8.884;2023-08-30T12:38:54;32.27;;;30.67;;
74821;SDS011;63353;48.702;8.884;2023-08-30T12:41:20;39.63;;;37.83;;
74821;SDS011;63353;48.702;8.884;2023-08-30T12:43:48;40.57;;;38.77;;
74821;SDS011;63353;48.702;8.884;2023-08-30T12:46:14;19.93;;;18.80;;
74821;SDS011;63353;48.702;8.884;2023-08-30T12:48:39;16.10;;;15.30;;
74821;SDS011;63353;48.702;8.884;2023-08-30T12:51:06;16.37;;;15.47;;
74821;SDS011;63353;48.702;8.884;2023-08-30T12:53:31;14.40;;;13.70;;
74821;SDS011;63353;48.702;8.884;2023-08-30T12:55:57;13.70;;;12.97;;
74821;SDS011;63353;48.702;8.884;2023-08-30T12:58:23;10.43;;;9.83;;
74821;SDS011;63353;48.702;8.884;2023-08-30T13:00:48;14.23;;;13.47;;
74821;SDS011;63353;48.702;8.884;2023-08-30T13:03:14;8.57;;;7.97;;
74821;SDS011;63353;48.702;8.884;2023-08-30T13:05:40;8.70;;;8.20;;
74821;SDS011;63353;48.702;8.884;2023-08-30T13:08:06;9.10;;;8.60;;
74821;SDS011;63353;48.702;8.884;2023-08-30T13:10:32;13.23;;;12.53;;
74821;SDS011;63353;48.702;8.884;2023-08-30T13:12:58;12.33;;;11.63;;
74821;SDS011;63353;48.702;8.884;2023-08-30T13:15:23;8.27;;;7.70;;
74821;SDS011;63353;48.702;8.884;2023-08-30T13:17:49;8.30;;;7.80;;
74821;SDS011;63353;48.702;8.884;2023-08-30T13:20:16;7.73;;;7.23;;
74821;SDS011;63353;48.702;8.884;2023-08-30T13:22:41;7.80;;;7.33;;
74821;SDS011;63353;48.702;8.884;2023-08-30T13:25:07;6.70;;;6.30;;
74821;SDS011;63353;48.702;8.884;2023-08-30T13:27:36;7.30;;;6.90;;
74821;SDS011;63353;48.702;8.884;2023-08-30T13:30:02;7.10;;;6.70;;
74821;SDS011;63353;48.702;8.884;2023-08-30T13:32:28;7.47;;;6.97;;
74821;SDS011;63353;48.702;8.884;2023-08-30T13:34:53;6.93;;;6.63;;
74821;SDS011;63353;48.702;8.884;2023-08-30T13:37:19;6.87;;;6.53;;
74821;SDS011;63353;48.702;8.884;2023-08-30T13:39:45;7.75;;;7.35;;
74821;SDS011;63353;48.702;8.884;2023-08-30T13:42:11;7.57;;;7.17;;
74821;SDS011;63353;48.702;8.884;2023-08-30T13:44:37;7.63;;;7.23;;
74821;SDS011;63353;48.702;8.884;2023-08-30T13:47:03;7.30;;;6.90;;
74821;SDS011;63353;48.702;8.884;2023-08-30T13:49:29;7.03;;;6.63;;
74821;SDS011;63353;48.702;8.884;2023-08-30T13:51:56;7.50;;;7.00;;
74821;SDS011;63353;48.702;8.884;2023-08-30T13:54:23;7.90;;;7.23;;
74821;SDS011;63353;48.702;8.884;2023-08-30T13:56:48;8.37;;;7.83;;
74821;SDS011;63353;48.702;8.884;2023-08-30T13:59:15;7.80;;;7.20;;
74821;SDS011;63353;48.702;8.884;2023-08-30T14:01:41;7.03;;;6.47;;
74821;SDS011;63353;48.702;8.884;2023-08-30T14:04:07;7.57;;;7.17;;
74821;SDS011;63353;48.702;8.884;2023-08-30T14:06:33;7.60;;;7.10;;
74821;SDS011;63353;48.702;8.884;2023-08-30T14:08:59;7.73;;;7.20;;
74821;SDS011;63353;48.702;8.884;2023-08-30T14:11:24;7.20;;;6.70;;
74821;SDS011;63353;48.702;8.884;2023-08-30T14:13:50;7.50;;;6.90;;
74821;SDS011;63353;48.702;8.884;2023-08-30T14:16:19;8.63;;;8.10;;
74821;SDS011;63353;48.702;8.884;2023-08-30T14:18:44;8.47;;;8.07;;
74821;SDS011;63353;48.702;8.884;2023-08-30T14:21:10;7.63;;;7.23;;
74821;SDS011;63353;48.702;8.884;2023-08-30T14:23:36;8.83;;;8.23;;
74821;SDS011;63353;48.702;8.884;2023-08-30T14:26:05;8.30;;;7.87;;
74821;SDS011;63353;48.702;8.884;2023-08-30T14:28:35;9.13;;;8.63;;
74821;SDS011;63353;48.702;8.884;2023-08-30T14:31:02;9.93;;;9.43;;
74821;SDS011;63353;48.702;8.884;2023-08-30T14:33:29;9.13;;;8.63;;
74821;SDS011;63353;48.702;8.884;2023-08-30T14:35:55;8.37;;;7.97;;